Time,TemperatureF,DewpointF,PressureIn,WindDirection,WindDirectionDegrees,WindSpeedMPH,WindSpeedGustMPH,Humidity,HourlyPrecipIn,Conditions,Clouds,dailyrainin,SolarRadiationWatts/m^2,SoftwareType,DateUTC
2013-09-03 00:04:00,49.4,49.4,29.95,NNE,28,0.0,-999.0,100,0.00,,,0.00,0,WeatherHawk,2013-09-03 05:04:00,
2013-09-03 00:09:00,49.6,49.6,29.96,NNE,28,0.0,-999.0,100,0.00,,,0.00,0,WeatherHawk,2013-09-03 05:09:00,
2013-09-03 00:14:00,50.9,50.9,29.96,NNE,28,0.0,-999.0,100,0.00,,,0.00,0,WeatherHawk,2013-09-03 05:14:00,
2013-09-03 00:19:00,51.4,51.4,29.96,NNE,28,0.0,-999.0,100,0.00,,,0.00,0,WeatherHawk,2013-09-03 05:19:00,
2013-09-03 00:29:00,51.3,51.3,29.96,NNE,28,0.0,-999.0,100,0.00,,,0.00,0,WeatherHawk,2013-09-03 05:29:00,
2013-09-03 00:34:00,50.9,50.9,29.96,NNE,28,0.0,-999.0,100,0.00,,,0.00,0,WeatherHawk,2013-09-03 05:34:00,
2013-09-03 00:39:00,50.7,50.7,29.96,NNE,28,0.0,-999.0,100,0.00,,,0.00,0,WeatherHawk,2013-09-03 05:39:00,
2013-09-03 00:49:00,49.9,49.9,29.97,NNE,28,0.0,-999.0,100,0.00,,,0.00,0,WeatherHawk,2013-09-03 05:49:00,
2013-09-03 00:54:00,49.6,49.6,29.96,NNE,28,0.0,-999.0,100,0.00,,,0.00,0,WeatherHawk,2013-09-03 05:54:00,
2013-09-03 00:59:00,49.7,49.7,29.96,NNE,28,0.0,-999.0,100,0.00,,,0.00,0,WeatherHawk,2013-09-03 05:59:00,
2013-09-03 01:04:00,49.2,49.2,29.97,NNE,28,0.0,-999.0,100,0.00,,,0.00,0,WeatherHawk,2013-09-03 06:04:00,
2013-09-03 01:09:00,49.9,49.9,29.97,NNE,28,0.0,-999.0,100,0.00,,,0.00,0,WeatherHawk,2013-09-03 06:09:00,
2013-09-03 01:14:00,51.3,51.3,29.97,NNE,28,0.0,-999.0,100,0.00,,,0.00,0,WeatherHawk,2013-09-03 06:14:00,
2013-09-03 01:19:00,48.5,48.5,29.96,NNE,28,0.0,-999.0,100,0.00,,,0.00,0,WeatherHawk,2013-09-03 06:19:00,
2013-09-03 01:24:00,48.8,48.8,29.97,NNE,28,0.0,-999.0,100,0.00,,,0.00,1,WeatherHawk,2013-09-03 06:24:00,
2013-09-03 01:29:00,49.3,49.3,29.97,NNE,28,0.0,-999.0,100,0.00,,,0.00,0,WeatherHawk,2013-09-03 06:29:00,
2013-09-03 01:34:00,48.8,48.8,29.97,NNE,28,0.0,-999.0,100,0.00,,,0.00,0,WeatherHawk,2013-09-03 06:34:00,
2013-09-03 01:39:00,49.4,49.4,29.96,NNE,28,0.0,-999.0,100,0.00,,,0.00,0,WeatherHawk,2013-09-03 06:39:00,
2013-09-03 01:44:00,49.4,49.4,29.98,NNE,28,0.0,-999.0,100,0.00,,,0.00,0,WeatherHawk,2013-09-03 06:44:00,
2013-09-03 01:54:00,49.1,49.1,29.97,NNE,28,0.0,-999.0,100,0.00,,,0.00,0,WeatherHawk,2013-09-03 06:54:00,
2013-09-03 02:04:00,50.0,50.0,29.97,NNE,28,0.0,-999.0,100,0.00,,,0.00,0,WeatherHawk,2013-09-03 07:04:00,
2013-09-03 02:14:00,50.0,50.0,29.98,NNE,28,0.0,-999.0,100,0.00,,,0.00,0,WeatherHawk,2013-09-03 07:14:00,
2013-09-03 02:19:00,50.1,50.1,29.98,NNE,28,0.0,-999.0,100,0.00,,,0.00,0,WeatherHawk,2013-09-03 07:19:00,
2013-09-03 02:24:00,50.1,50.1,29.97,NNE,28,0.0,-999.0,100,0.00,,,0.00,1,WeatherHawk,2013-09-03 07:24:00,
2013-09-03 02:29:00,49.9,49.9,29.98,NNE,28,0.0,-999.0,100,0.00,,,0.00,0,WeatherHawk,2013-09-03 07:29:00,
2013-09-03 02:34:00,49.9,49.9,29.98,NNE,28,0.0,-999.0,100,0.00,,,0.00,0,WeatherHawk,2013-09-03 07:34:00,
2013-09-03 02:39:00,48.6,48.6,29.98,NNE,28,0.0,-999.0,100,0.00,,,0.00,1,WeatherHawk,2013-09-03 07:39:00,
2013-09-03 02:44:00,47.5,47.5,29.98,NNE,28,0.0,-999.0,100,0.00,,,0.00,0,WeatherHawk,2013-09-03 07:44:00,
2013-09-03 02:49:00,48.5,48.5,29.99,NNE,28,0.0,-999.0,100,0.00,,,0.00,0,WeatherHawk,2013-09-03 07:49:00,
2013-09-03 02:59:00,48.6,48.6,29.98,NNE,28,0.0,-999.0,100,0.00,,,0.00,0,WeatherHawk,2013-09-03 07:59:00,
2013-09-03 03:09:00,49.1,49.1,29.99,NNE,28,0.0,-999.0,100,0.00,,,0.00,0,WeatherHawk,2013-09-03 08:09:00,
2013-09-03 03:14:00,48.8,48.8,29.99,NNE,28,0.0,-999.0,100,0.00,,,0.00,0,WeatherHawk,2013-09-03 08:14:00,
2013-09-03 03:19:00,48.0,48.0,29.99,NNE,28,0.0,-999.0,100,0.00,,,0.00,0,WeatherHawk,2013-09-03 08:19:00,
2013-09-03 03:24:00,47.2,47.2,29.98,NNE,28,0.0,-999.0,100,0.00,,,0.00,0,WeatherHawk,2013-09-03 08:24:00,
2013-09-03 03:29:00,48.6,48.6,29.99,NNE,28,0.0,-999.0,100,0.00,,,0.00,0,WeatherHawk,2013-09-03 08:29:00,
2013-09-03 03:34:00,48.1,48.1,29.99,NNE,28,0.0,-999.0,100,0.00,,,0.00,1,WeatherHawk,2013-09-03 08:34:00,
2013-09-03 03:39:00,48.8,48.8,29.99,NNE,28,0.0,-999.0,100,0.00,,,0.00,0,WeatherHawk,2013-09-03 08:39:00,
2013-09-03 03:44:00,49.9,49.9,29.99,North,0,0.0,-999.0,100,0.00,,,0.00,1,WeatherHawk,2013-09-03 08:44:00,
2013-09-03 03:49:00,49.2,49.2,30.00,North,0,0.0,-999.0,100,0.00,,,0.00,0,WeatherHawk,2013-09-03 08:49:00,
2013-09-03 03:54:00,48.4,48.4,29.99,North,0,0.0,-999.0,100,0.00,,,0.00,0,WeatherHawk,2013-09-03 08:54:00,
2013-09-03 03:59:00,49.2,49.2,30.00,North,0,0.0,-999.0,100,0.00,,,0.00,0,WeatherHawk,2013-09-03 08:59:00,
2013-09-03 04:04:00,48.3,48.3,29.99,North,0,0.0,-999.0,100,0.00,,,0.00,1,WeatherHawk,2013-09-03 09:04:00,
2013-09-03 04:09:00,48.5,48.5,30.00,North,0,0.0,-999.0,100,0.00,,,0.00,0,WeatherHawk,2013-09-03 09:09:00,
2013-09-03 04:14:00,48.9,48.9,30.00,North,0,0.0,-999.0,100,0.00,,,0.00,0,WeatherHawk,2013-09-03 09:14:00,
2013-09-03 04:19:00,48.8,48.8,29.99,North,0,0.0,-999.0,100,0.00,,,0.00,1,WeatherHawk,2013-09-03 09:19:00,
2013-09-03 04:24:00,48.3,48.3,29.99,North,0,0.0,-999.0,100,0.00,,,0.00,0,WeatherHawk,2013-09-03 09:24:00,
2013-09-03 04:29:00,47.4,47.4,30.00,North,0,0.0,-999.0,100,0.00,,,0.00,0,WeatherHawk,2013-09-03 09:29:00,
2013-09-03 04:34:00,48.5,48.5,29.99,North,0,0.0,-999.0,100,0.00,,,0.00,0,WeatherHawk,2013-09-03 09:34:00,
2013-09-03 04:39:00,48.0,48.0,29.99,North,0,0.0,-999.0,100,0.00,,,0.00,0,WeatherHawk,2013-09-03 09:39:00,
2013-09-03 04:44:00,48.0,48.0,29.99,North,0,0.0,-999.0,100,0.00,,,0.00,0,WeatherHawk,2013-09-03 09:44:00,
2013-09-03 04:49:00,47.2,47.2,30.00,North,0,0.0,-999.0,100,0.00,,,0.00,0,WeatherHawk,2013-09-03 09:49:00,
2013-09-03 04:54:00,48.0,48.0,30.00,North,0,0.0,-999.0,100,0.00,,,0.00,0,WeatherHawk,2013-09-03 09:54:00,
2013-09-03 04:59:00,47.5,47.5,29.99,North,0,0.0,-999.0,100,0.00,,,0.00,0,WeatherHawk,2013-09-03 09:59:00,
2013-09-03 05:04:00,47.3,47.3,30.00,North,0,0.0,-999.0,100,0.00,,,0.00,0,WeatherHawk,2013-09-03 10:04:00,
2013-09-03 05:09:00,46.3,46.3,30.00,North,0,0.0,-999.0,100,0.00,,,0.00,0,WeatherHawk,2013-09-03 10:09:00,
2013-09-03 05:14:00,47.2,47.2,30.00,North,0,0.0,-999.0,100,0.00,,,0.00,0,WeatherHawk,2013-09-03 10:14:00,
2013-09-03 05:19:00,47.9,47.9,30.00,North,0,0.0,-999.0,100,0.00,,,0.00,0,WeatherHawk,2013-09-03 10:19:00,
2013-09-03 05:24:00,46.8,46.8,30.01,North,0,0.0,-999.0,100,0.00,,,0.00,0,WeatherHawk,2013-09-03 10:24:00,
2013-09-03 05:29:00,47.0,47.0,29.99,North,0,0.0,-999.0,100,0.00,,,0.00,0,WeatherHawk,2013-09-03 10:29:00,
2013-09-03 05:34:00,45.6,45.6,30.00,North,0,0.0,-999.0,100,0.00,,,0.00,0,WeatherHawk,2013-09-03 10:34:00,
2013-09-03 05:39:00,47.0,47.0,30.00,North,0,0.0,-999.0,100,0.00,,,0.00,0,WeatherHawk,2013-09-03 10:39:00,
2013-09-03 05:44:00,48.2,48.2,30.01,North,0,0.0,-999.0,100,0.00,,,0.00,0,WeatherHawk,2013-09-03 10:44:00,
2013-09-03 05:49:00,47.0,47.0,30.01,North,0,0.0,-999.0,100,0.00,,,0.00,0,WeatherHawk,2013-09-03 10:49:00,
2013-09-03 05:54:00,46.5,46.5,30.01,North,0,0.0,-999.0,100,0.00,,,0.00,0,WeatherHawk,2013-09-03 10:54:00,
2013-09-03 05:59:00,46.7,46.7,30.00,North,0,0.0,-999.0,100,0.00,,,0.00,0,WeatherHawk,2013-09-03 10:59:00,
2013-09-03 06:04:00,46.1,46.1,30.00,North,0,0.0,-999.0,100,0.00,,,0.00,1,WeatherHawk,2013-09-03 11:04:00,
2013-09-03 06:14:00,45.8,45.8,30.01,North,0,0.0,-999.0,100,0.00,,,0.00,2,WeatherHawk,2013-09-03 11:14:00,
2013-09-03 06:19:00,46.1,46.1,30.01,North,0,0.0,-999.0,100,0.00,,,0.00,4,WeatherHawk,2013-09-03 11:19:00,
2013-09-03 06:24:00,45.8,45.8,30.01,North,0,0.0,-999.0,100,0.00,,,0.00,6,WeatherHawk,2013-09-03 11:24:00,
2013-09-03 06:29:00,46.2,46.2,30.01,North,0,0.0,-999.0,100,0.00,,,0.00,9,WeatherHawk,2013-09-03 11:29:00,
2013-09-03 06:34:00,46.3,46.3,30.01,North,0,0.0,-999.0,100,0.00,,,0.00,13,WeatherHawk,2013-09-03 11:34:00,
2013-09-03 06:39:00,47.2,47.2,30.02,North,0,0.0,-999.0,100,0.00,,,0.00,15,WeatherHawk,2013-09-03 11:39:00,
2013-09-03 06:44:00,47.2,47.2,30.01,North,0,0.0,-999.0,100,0.00,,,0.00,18,WeatherHawk,2013-09-03 11:44:00,
2013-09-03 06:49:00,47.1,47.1,30.01,North,0,0.0,-999.0,100,0.00,,,0.00,26,WeatherHawk,2013-09-03 11:49:00,
2013-09-03 06:54:00,46.0,46.0,30.01,North,0,0.0,-999.0,100,0.00,,,0.00,27,WeatherHawk,2013-09-03 11:54:00,
2013-09-03 06:59:00,47.9,47.9,30.02,North,0,0.0,-999.0,100,0.00,,,0.00,30,WeatherHawk,2013-09-03 11:59:00,
2013-09-03 07:04:00,50.8,50.8,30.01,North,0,0.0,-999.0,100,0.00,,,0.00,191,WeatherHawk,2013-09-03 12:04:00,
2013-09-03 07:09:00,50.1,50.1,30.02,North,0,0.0,-999.0,100,0.00,,,0.00,213,WeatherHawk,2013-09-03 12:09:00,
2013-09-03 07:14:00,50.1,50.1,30.02,North,0,0.0,-999.0,100,0.00,,,0.00,232,WeatherHawk,2013-09-03 12:14:00,
2013-09-03 07:19:00,51.0,51.0,30.03,North,0,0.0,-999.0,100,0.00,,,0.00,250,WeatherHawk,2013-09-03 12:19:00,
2013-09-03 07:24:00,51.9,51.9,30.02,WNW,291,0.0,-999.0,100,0.00,,,0.00,265,WeatherHawk,2013-09-03 12:24:00,
2013-09-03 07:29:00,52.1,52.1,30.03,WNW,291,0.0,-999.0,100,0.00,,,0.00,277,WeatherHawk,2013-09-03 12:29:00,
2013-09-03 07:34:00,52.9,52.9,30.03,WNW,291,0.0,-999.0,100,0.00,,,0.00,286,WeatherHawk,2013-09-03 12:34:00,
2013-09-03 07:39:00,53.3,53.3,30.03,West,274,0.0,-999.0,100,0.00,,,0.00,297,WeatherHawk,2013-09-03 12:39:00,
2013-09-03 07:44:00,55.9,55.9,30.03,WNW,293,0.0,-999.0,100,0.00,,,0.00,302,WeatherHawk,2013-09-03 12:44:00,
2013-09-03 07:49:00,54.6,54.6,30.03,West,270,0.0,-999.0,100,0.00,,,0.00,306,WeatherHawk,2013-09-03 12:49:00,
2013-09-03 07:54:00,54.5,54.5,30.03,West,264,0.0,-999.0,100,0.00,,,0.00,309,WeatherHawk,2013-09-03 12:54:00,
2013-09-03 07:59:00,55.3,55.3,30.03,West,264,0.0,-999.0,100,0.00,,,0.00,308,WeatherHawk,2013-09-03 12:59:00,
2013-09-03 08:04:00,55.6,55.6,30.03,WNW,300,0.0,-999.0,100,0.00,,,0.00,303,WeatherHawk,2013-09-03 13:04:00,
2013-09-03 08:09:00,54.8,54.8,30.03,WNW,300,0.0,-999.0,100,0.00,,,0.00,298,WeatherHawk,2013-09-03 13:09:00,
2013-09-03 08:14:00,55.7,55.7,30.04,NW,324,2.0,-999.0,100,0.00,,,0.00,289,WeatherHawk,2013-09-03 13:14:00,
2013-09-03 08:19:00,57.8,57.8,30.03,NW,315,0.0,-999.0,100,0.00,,,0.00,286,WeatherHawk,2013-09-03 13:19:00,
2013-09-03 08:24:00,55.3,55.3,30.03,NW,307,2.0,-999.0,100,0.00,,,0.00,286,WeatherHawk,2013-09-03 13:24:00,
2013-09-03 08:29:00,59.0,59.0,30.04,NW,318,0.0,-999.0,100,0.00,,,0.00,287,WeatherHawk,2013-09-03 13:29:00,
2013-09-03 08:34:00,58.6,54.7,30.02,NNE,23,0.0,-999.0,87,0.00,,,0.00,302,WeatherHawk,2013-09-03 13:34:00,
2013-09-03 08:39:00,60.4,55.2,30.05,WNW,293,0.0,-999.0,83,0.00,,,0.00,314,WeatherHawk,2013-09-03 13:39:00,
2013-09-03 08:44:00,64.4,58.4,30.04,West,277,0.0,-999.0,81,0.00,,,0.00,326,WeatherHawk,2013-09-03 13:44:00,
2013-09-03 08:49:00,59.9,52.0,30.04,West,281,0.0,-999.0,75,0.00,,,0.00,346,WeatherHawk,2013-09-03 13:49:00,
2013-09-03 08:54:00,58.7,49.7,30.04,NNE,28,0.0,-999.0,72,0.00,,,0.00,358,WeatherHawk,2013-09-03 13:54:00,
2013-09-03 08:59:00,60.6,50.7,30.04,West,280,0.0,-999.0,70,0.00,,,0.00,376,WeatherHawk,2013-09-03 13:59:00,
2013-09-03 09:04:00,60.1,50.7,30.05,West,269,1.0,-999.0,71,0.00,,,0.00,387,WeatherHawk,2013-09-03 14:04:00,
2013-09-03 09:09:00,60.2,47.5,30.05,WSW,254,0.0,-999.0,63,0.00,,,0.00,403,WeatherHawk,2013-09-03 14:09:00,
2013-09-03 09:14:00,60.0,46.1,30.05,West,281,3.0,-999.0,60,0.00,,,0.00,418,WeatherHawk,2013-09-03 14:14:00,
2013-09-03 09:19:00,63.4,48.4,30.05,SW,231,3.0,-999.0,58,0.00,,,0.00,431,WeatherHawk,2013-09-03 14:19:00,
2013-09-03 09:29:00,62.1,47.6,30.05,NNW,327,0.0,-999.0,59,0.00,,,0.00,457,WeatherHawk,2013-09-03 14:29:00,
2013-09-03 09:34:00,63.6,49.0,30.05,WSW,246,0.0,-999.0,59,0.00,,,0.00,471,WeatherHawk,2013-09-03 14:34:00,
2013-09-03 09:39:00,61.5,44.2,30.06,West,269,2.0,-999.0,53,0.00,,,0.00,484,WeatherHawk,2013-09-03 14:39:00,
2013-09-03 09:44:00,60.7,43.5,30.06,NW,315,4.0,-999.0,53,0.00,,,0.00,500,WeatherHawk,2013-09-03 14:44:00,
2013-09-03 09:49:00,63.9,47.4,30.06,SSE,162,0.0,-999.0,55,0.00,,,0.00,511,WeatherHawk,2013-09-03 14:49:00,
2013-09-03 09:54:00,63.6,47.2,30.05,WSW,244,1.0,-999.0,55,0.00,,,0.00,527,WeatherHawk,2013-09-03 14:54:00,
2013-09-03 09:59:00,61.2,43.4,30.05,WNW,289,5.0,-999.0,52,0.00,,,0.00,539,WeatherHawk,2013-09-03 14:59:00,
2013-09-03 10:04:00,62.6,45.2,30.05,NW,316,5.0,-999.0,53,0.00,,,0.00,548,WeatherHawk,2013-09-03 15:04:00,
2013-09-03 10:09:00,63.0,45.1,30.06,West,278,2.0,-999.0,52,0.00,,,0.00,561,WeatherHawk,2013-09-03 15:09:00,
2013-09-03 10:14:00,65.9,48.3,30.05,WSW,253,0.0,-999.0,53,0.00,,,0.00,573,WeatherHawk,2013-09-03 15:14:00,
2013-09-03 10:19:00,65.6,45.9,30.05,WSW,237,3.0,-999.0,49,0.00,,,0.00,583,WeatherHawk,2013-09-03 15:19:00,
2013-09-03 10:24:00,64.2,44.1,30.05,West,275,0.0,-999.0,48,0.00,,,0.00,591,WeatherHawk,2013-09-03 15:24:00,
2013-09-03 10:29:00,62.9,41.2,30.05,WNW,286,3.0,-999.0,45,0.00,,,0.00,601,WeatherHawk,2013-09-03 15:29:00,
2013-09-03 10:34:00,65.5,43.6,30.05,NW,314,0.0,-999.0,45,0.00,,,0.00,613,WeatherHawk,2013-09-03 15:34:00,
2013-09-03 10:39:00,66.5,43.9,30.05,West,277,0.0,-999.0,44,0.00,,,0.00,624,WeatherHawk,2013-09-03 15:39:00,
2013-09-03 10:44:00,65.5,43.0,30.05,West,259,2.0,-999.0,44,0.00,,,0.00,631,WeatherHawk,2013-09-03 15:44:00,
2013-09-03 10:49:00,67.3,44.6,30.05,SSW,208,0.0,-999.0,44,0.00,,,0.00,640,WeatherHawk,2013-09-03 15:49:00,
2013-09-03 10:54:00,68.4,46.2,30.05,SW,230,0.0,-999.0,45,0.00,,,0.00,651,WeatherHawk,2013-09-03 15:54:00,
2013-09-03 10:59:00,64.0,38.5,30.05,West,278,3.0,-999.0,39,0.00,,,0.00,658,WeatherHawk,2013-09-03 15:59:00,
2013-09-03 11:04:00,68.6,45.8,30.05,WSW,252,0.0,-999.0,44,0.00,,,0.00,665,WeatherHawk,2013-09-03 16:04:00,
2013-09-03 11:09:00,68.8,43.5,30.05,SW,235,0.0,-999.0,40,0.00,,,0.00,673,WeatherHawk,2013-09-03 16:09:00,
2013-09-03 11:14:00,68.5,45.7,30.05,WNW,284,2.0,-999.0,44,0.00,,,0.00,677,WeatherHawk,2013-09-03 16:14:00,
2013-09-03 11:19:00,68.6,45.8,30.05,West,276,0.0,-999.0,44,0.00,,,0.00,686,WeatherHawk,2013-09-03 16:19:00,
2013-09-03 11:24:00,67.8,41.9,30.04,NE,37,1.0,-999.0,39,0.00,,,0.00,692,WeatherHawk,2013-09-03 16:24:00,
2013-09-03 11:29:00,69.1,43.8,30.05,SW,224,2.0,-999.0,40,0.00,,,0.00,699,WeatherHawk,2013-09-03 16:29:00,
2013-09-03 11:34:00,67.7,41.1,30.04,South,187,2.0,-999.0,38,0.00,,,0.00,704,WeatherHawk,2013-09-03 16:34:00,
2013-09-03 11:39:00,68.1,40.8,30.05,South,183,4.0,-999.0,37,0.00,,,0.00,712,WeatherHawk,2013-09-03 16:39:00,
2013-09-03 11:44:00,69.5,43.4,30.04,SW,234,4.0,-999.0,39,0.00,,,0.00,714,WeatherHawk,2013-09-03 16:44:00,
2013-09-03 11:49:00,69.2,43.2,30.03,SSW,202,4.0,-999.0,39,0.00,,,0.00,722,WeatherHawk,2013-09-03 16:49:00,
2013-09-03 11:54:00,67.5,40.3,30.03,NNW,338,2.0,-999.0,37,0.00,,,0.00,725,WeatherHawk,2013-09-03 16:54:00,
2013-09-03 11:59:00,67.5,41.7,30.04,NNW,337,0.0,-999.0,39,0.00,,,0.00,732,WeatherHawk,2013-09-03 16:59:00,
2013-09-03 12:04:00,71.2,47.5,30.03,WSW,246,1.0,-999.0,43,0.00,,,0.00,740,WeatherHawk,2013-09-03 17:04:00,
2013-09-03 12:09:00,66.3,39.3,30.04,NW,318,6.0,-999.0,37,0.00,,,0.00,697,WeatherHawk,2013-09-03 17:09:00,
2013-09-03 12:14:00,69.9,41.0,30.04,West,275,4.0,-999.0,35,0.00,,,0.00,750,WeatherHawk,2013-09-03 17:14:00,
2013-09-03 12:19:00,68.1,40.1,30.04,South,184,0.0,-999.0,36,0.00,,,0.00,746,WeatherHawk,2013-09-03 17:19:00,
2013-09-03 12:24:00,69.7,43.0,30.03,WNW,284,2.0,-999.0,38,0.00,,,0.00,751,WeatherHawk,2013-09-03 17:24:00,
2013-09-03 12:29:00,69.1,42.4,30.03,WNW,291,0.0,-999.0,38,0.00,,,0.00,754,WeatherHawk,2013-09-03 17:29:00,
2013-09-03 12:34:00,69.0,42.3,30.03,West,275,3.0,-999.0,38,0.00,,,0.00,756,WeatherHawk,2013-09-03 17:34:00,
2013-09-03 12:39:00,69.9,41.7,30.02,West,270,4.0,-999.0,36,0.00,,,0.00,743,WeatherHawk,2013-09-03 17:39:00,
2013-09-03 12:44:00,68.6,41.3,30.03,WNW,289,2.0,-999.0,37,0.00,,,0.00,762,WeatherHawk,2013-09-03 17:44:00,
2013-09-03 12:49:00,69.7,40.8,30.03,WSW,238,5.0,-999.0,35,0.00,,,0.00,734,WeatherHawk,2013-09-03 17:49:00,
2013-09-03 12:54:00,69.8,42.4,30.03,WSW,246,0.0,-999.0,37,0.00,,,0.00,775,WeatherHawk,2013-09-03 17:54:00,
2013-09-03 12:59:00,71.7,44.0,30.02,SSW,210,0.0,-999.0,37,0.00,,,0.00,795,WeatherHawk,2013-09-03 17:59:00,
2013-09-03 13:04:00,71.9,42.0,30.03,South,181,2.0,-999.0,34,0.00,,,0.00,752,WeatherHawk,2013-09-03 18:04:00,
2013-09-03 13:09:00,71.9,43.5,30.03,SW,219,2.0,-999.0,36,0.00,,,0.00,762,WeatherHawk,2013-09-03 18:09:00,
2013-09-03 13:14:00,73.7,44.3,30.03,SSW,211,1.0,-999.0,35,0.00,,,0.00,824,WeatherHawk,2013-09-03 18:14:00,
2013-09-03 13:19:00,73.1,43.8,30.02,WSW,250,2.0,-999.0,35,0.00,,,0.00,723,WeatherHawk,2013-09-03 18:19:00,
2013-09-03 13:24:00,71.8,41.1,30.02,SSW,210,2.0,-999.0,33,0.00,,,0.00,745,WeatherHawk,2013-09-03 18:24:00,
2013-09-03 13:29:00,74.5,47.2,30.02,West,264,0.0,-999.0,38,0.00,,,0.00,687,WeatherHawk,2013-09-03 18:29:00,
2013-09-03 13:34:00,72.1,42.9,30.02,South,183,2.0,-999.0,35,0.00,,,0.00,595,WeatherHawk,2013-09-03 18:34:00,
2013-09-03 13:39:00,70.0,40.3,30.03,WNW,292,4.0,-999.0,34,0.00,,,0.00,507,WeatherHawk,2013-09-03 18:39:00,
2013-09-03 13:44:00,71.0,43.4,30.02,WNW,293,2.0,-999.0,37,0.00,,,0.00,496,WeatherHawk,2013-09-03 18:44:00,
2013-09-03 13:49:00,71.1,42.8,30.02,SW,225,4.0,-999.0,36,0.00,,,0.00,654,WeatherHawk,2013-09-03 18:49:00,
2013-09-03 13:54:00,72.1,42.2,30.01,SSW,197,4.0,-999.0,34,0.00,,,0.00,697,WeatherHawk,2013-09-03 18:54:00,
2013-09-03 13:59:00,72.2,40.7,30.01,SW,226,3.0,-999.0,32,0.00,,,0.00,758,WeatherHawk,2013-09-03 18:59:00,
2013-09-03 14:04:00,72.8,42.0,30.01,SSW,203,0.0,-999.0,33,0.00,,,0.00,786,WeatherHawk,2013-09-03 19:04:00,
2013-09-03 14:09:00,75.8,47.6,30.01,WSW,238,0.0,-999.0,37,0.00,,,0.00,749,WeatherHawk,2013-09-03 19:09:00,
2013-09-03 14:14:00,71.4,41.5,30.01,WNW,292,3.0,-999.0,34,0.00,,,0.00,758,WeatherHawk,2013-09-03 19:14:00,
2013-09-03 14:19:00,73.8,45.2,30.00,West,281,0.0,-999.0,36,0.00,,,0.00,783,WeatherHawk,2013-09-03 19:19:00,
2013-09-03 14:24:00,74.9,46.2,30.00,WNW,301,0.0,-999.0,36,0.00,,,0.00,705,WeatherHawk,2013-09-03 19:24:00,
2013-09-03 14:29:00,73.1,43.1,30.00,SSE,156,0.0,-999.0,34,0.00,,,0.00,785,WeatherHawk,2013-09-03 19:29:00,
2013-09-03 14:34:00,72.8,42.8,29.99,WSW,246,3.0,-999.0,34,0.00,,,0.00,578,WeatherHawk,2013-09-03 19:34:00,
2013-09-03 14:39:00,71.7,41.0,30.00,SW,234,1.0,-999.0,33,0.00,,,0.00,498,WeatherHawk,2013-09-03 19:39:00,
2013-09-03 14:44:00,72.0,42.9,30.00,WSW,244,4.0,-999.0,35,0.00,,,0.00,438,WeatherHawk,2013-09-03 19:44:00,
2013-09-03 14:49:00,71.6,43.2,29.99,SW,223,2.0,-999.0,36,0.00,,,0.00,220,WeatherHawk,2013-09-03 19:49:00,
2013-09-03 14:54:00,72.3,45.3,29.99,West,274,0.0,-999.0,38,0.00,,,0.00,609,WeatherHawk,2013-09-03 19:54:00,
2013-09-03 14:59:00,72.2,47.2,29.99,WSW,240,1.0,-999.0,41,0.00,,,0.00,318,WeatherHawk,2013-09-03 19:59:00,
2013-09-03 15:04:00,71.0,45.4,29.98,SSW,201,2.0,-999.0,40,0.00,,,0.00,249,WeatherHawk,2013-09-03 20:04:00,
2013-09-03 15:09:00,71.7,46.8,29.99,SW,221,4.0,-999.0,41,0.00,,,0.00,338,WeatherHawk,2013-09-03 20:09:00,
2013-09-03 15:14:00,71.4,47.1,29.99,SW,225,7.0,-999.0,42,0.00,,,0.00,487,WeatherHawk,2013-09-03 20:14:00,
2013-09-03 15:19:00,71.0,46.8,29.98,SSW,192,4.0,-999.0,42,0.00,,,0.00,476,WeatherHawk,2013-09-03 20:19:00,
2013-09-03 15:24:00,72.3,46.6,29.98,SW,236,9.0,-999.0,40,0.00,,,0.00,557,WeatherHawk,2013-09-03 20:24:00,
2013-09-03 15:29:00,72.1,46.5,29.98,SW,233,2.0,-999.0,40,0.00,,,0.00,390,WeatherHawk,2013-09-03 20:29:00,
2013-09-03 15:34:00,71.7,47.4,29.98,SW,215,4.0,-999.0,42,0.00,,,0.00,386,WeatherHawk,2013-09-03 20:34:00,
2013-09-03 15:39:00,71.0,45.4,29.98,WSW,252,6.0,-999.0,40,0.00,,,0.00,335,WeatherHawk,2013-09-03 20:39:00,
2013-09-03 15:44:00,71.5,47.2,29.98,SSW,205,5.0,-999.0,42,0.00,,,0.00,399,WeatherHawk,2013-09-03 20:44:00,
2013-09-03 15:49:00,71.6,46.6,29.98,West,260,4.0,-999.0,41,0.00,,,0.00,355,WeatherHawk,2013-09-03 20:49:00,
2013-09-03 15:54:00,74.8,52.0,29.98,SW,227,1.0,-999.0,45,0.00,,,0.00,554,WeatherHawk,2013-09-03 20:54:00,
2013-09-03 15:59:00,72.0,47.0,29.98,SW,229,2.0,-999.0,41,0.00,,,0.00,313,WeatherHawk,2013-09-03 20:59:00,
2013-09-03 16:04:00,71.4,47.7,29.99,South,185,1.0,-999.0,43,0.00,,,0.00,287,WeatherHawk,2013-09-03 21:04:00,
2013-09-03 16:09:00,71.9,46.2,29.98,WNW,298,2.0,-999.0,40,0.00,,,0.00,343,WeatherHawk,2013-09-03 21:09:00,
2013-09-03 16:14:00,74.1,49.6,29.98,WSW,257,0.0,-999.0,42,0.00,,,0.00,528,WeatherHawk,2013-09-03 21:14:00,
2013-09-03 16:19:00,72.4,46.0,29.97,WSW,243,5.0,-999.0,39,0.00,,,0.00,472,WeatherHawk,2013-09-03 21:19:00,
2013-09-03 16:24:00,71.3,45.8,29.97,SW,218,3.0,-999.0,40,0.00,,,0.00,308,WeatherHawk,2013-09-03 21:24:00,
2013-09-03 16:29:00,71.5,46.5,29.98,SW,227,1.0,-999.0,41,0.00,,,0.00,188,WeatherHawk,2013-09-03 21:29:00,
2013-09-03 16:34:00,71.1,46.2,29.98,WNW,287,4.0,-999.0,41,0.00,,,0.00,191,WeatherHawk,2013-09-03 21:34:00,
2013-09-03 16:39:00,70.4,44.9,29.98,WSW,251,4.0,-999.0,40,0.00,,,0.00,113,WeatherHawk,2013-09-03 21:39:00,
2013-09-03 16:44:00,69.9,46.3,29.98,West,267,2.0,-999.0,43,0.00,,,0.00,95,WeatherHawk,2013-09-03 21:44:00,
2013-09-03 16:49:00,69.6,47.3,29.98,West,275,1.0,-999.0,45,0.00,,,0.00,104,WeatherHawk,2013-09-03 21:49:00,
2013-09-03 16:54:00,69.2,48.1,29.98,WNW,290,0.0,-999.0,47,0.00,,,0.00,113,WeatherHawk,2013-09-03 21:54:00,
2013-09-03 16:59:00,69.4,48.3,29.97,West,279,1.0,-999.0,47,0.00,,,0.00,163,WeatherHawk,2013-09-03 21:59:00,
2013-09-03 17:04:00,70.6,49.3,29.97,WNW,290,2.0,-999.0,47,0.00,,,0.00,352,WeatherHawk,2013-09-03 22:04:00,
2013-09-03 17:09:00,70.5,48.1,29.98,NNW,327,2.0,-999.0,45,0.00,,,0.00,130,WeatherHawk,2013-09-03 22:09:00,
2013-09-03 17:14:00,70.6,48.2,29.98,West,262,3.0,-999.0,45,0.00,,,0.00,231,WeatherHawk,2013-09-03 22:14:00,
2013-09-03 17:19:00,71.7,49.2,29.98,West,260,1.0,-999.0,45,0.00,,,0.00,362,WeatherHawk,2013-09-03 22:19:00,
2013-09-03 17:24:00,71.7,47.4,29.98,West,265,4.0,-999.0,42,0.00,,,0.00,316,WeatherHawk,2013-09-03 22:24:00,
2013-09-03 17:29:00,70.8,47.2,29.98,NW,306,3.0,-999.0,43,0.00,,,0.00,141,WeatherHawk,2013-09-03 22:29:00,
2013-09-03 17:34:00,70.3,46.7,29.97,SSW,196,2.0,-999.0,43,0.00,,,0.00,130,WeatherHawk,2013-09-03 22:34:00,
2013-09-03 17:44:00,70.5,47.5,29.97,West,276,1.0,-999.0,44,0.00,,,0.00,208,WeatherHawk,2013-09-03 22:44:00,
2013-09-03 17:49:00,72.0,48.9,29.97,WSW,238,0.0,-999.0,44,0.00,,,0.00,267,WeatherHawk,2013-09-03 22:49:00,
2013-09-03 17:54:00,71.9,48.8,29.96,WSW,249,2.0,-999.0,44,0.00,,,0.00,234,WeatherHawk,2013-09-03 22:54:00,
2013-09-03 17:59:00,70.7,47.7,29.96,SW,233,0.0,-999.0,44,0.00,,,0.00,116,WeatherHawk,2013-09-03 22:59:00,
2013-09-03 18:04:00,70.0,47.7,29.96,WSW,250,0.0,-999.0,45,0.00,,,0.00,104,WeatherHawk,2013-09-03 23:04:00,
2013-09-03 18:10:00,69.9,47.6,29.97,West,281,0.0,-999.0,45,0.00,,,0.00,91,WeatherHawk,2013-09-03 23:10:00,
2013-09-03 18:15:00,69.0,48.5,29.96,SW,231,0.0,-999.0,48,0.00,,,0.00,68,WeatherHawk,2013-09-03 23:15:00,
2013-09-03 18:20:00,69.9,49.8,29.96,West,261,0.0,-999.0,49,0.00,,,0.00,120,WeatherHawk,2013-09-03 23:20:00,
2013-09-03 18:25:00,68.9,49.0,29.96,West,278,0.0,-999.0,49,0.00,,,0.00,103,WeatherHawk,2013-09-03 23:25:00,
2013-09-03 18:34:00,68.8,49.9,29.97,West,277,0.0,-999.0,51,0.00,,,0.00,81,WeatherHawk,2013-09-03 23:34:00,
2013-09-03 18:40:00,68.7,49.9,29.95,West,277,0.0,-999.0,51,0.00,,,0.00,63,WeatherHawk,2013-09-03 23:40:00,
2013-09-03 18:45:00,68.6,50.3,29.96,West,277,0.0,-999.0,52,0.00,,,0.00,51,WeatherHawk,2013-09-03 23:45:00,
2013-09-03 18:54:00,67.9,51.1,29.96,West,277,0.0,-999.0,55,0.00,,,0.00,18,WeatherHawk,2013-09-03 23:54:00,
2013-09-03 18:59:00,67.4,52.1,29.96,West,277,0.0,-999.0,58,0.00,,,0.00,15,WeatherHawk,2013-09-03 23:59:00,
2013-09-03 19:04:00,66.5,52.2,29.96,West,277,0.0,-999.0,60,0.00,,,0.00,13,WeatherHawk,2013-09-04 00:04:00,
2013-09-03 19:09:00,64.3,51.4,29.96,West,277,0.0,-999.0,63,0.00,,,0.00,11,WeatherHawk,2013-09-04 00:09:00,
2013-09-03 19:15:00,65.6,54.4,29.96,West,277,0.0,-999.0,67,0.00,,,0.00,8,WeatherHawk,2013-09-04 00:15:00,
2013-09-03 19:24:00,63.8,53.8,29.97,West,277,0.0,-999.0,70,0.00,,,0.00,3,WeatherHawk,2013-09-04 00:24:00,
2013-09-03 19:29:00,65.0,56.5,29.97,West,277,0.0,-999.0,74,0.00,,,0.00,0,WeatherHawk,2013-09-04 00:29:00,
2013-09-03 19:34:00,64.0,56.3,29.97,West,277,0.0,-999.0,76,0.00,,,0.00,0,WeatherHawk,2013-09-04 00:34:00,
2013-09-03 19:44:00,60.9,54.6,29.97,West,277,0.0,-999.0,80,0.00,,,0.00,0,WeatherHawk,2013-09-04 00:44:00,
2013-09-03 19:49:00,58.8,54.0,29.96,West,277,0.0,-999.0,84,0.00,,,0.00,1,WeatherHawk,2013-09-04 00:49:00,
2013-09-03 19:54:00,58.9,55.3,29.97,West,277,0.0,-999.0,88,0.00,,,0.00,0,WeatherHawk,2013-09-04 00:54:00,
2013-09-03 19:59:00,61.0,58.0,29.96,West,277,0.0,-999.0,90,0.00,,,0.00,0,WeatherHawk,2013-09-04 00:59:00,
2013-09-03 20:04:00,62.4,59.4,29.98,West,277,0.0,-999.0,90,0.00,,,0.00,0,WeatherHawk,2013-09-04 01:04:00,
2013-09-03 20:09:00,60.4,57.1,29.97,West,277,0.0,-999.0,89,0.00,,,0.00,0,WeatherHawk,2013-09-04 01:09:00,
2013-09-03 20:14:00,62.8,59.8,29.97,West,277,0.0,-999.0,90,0.00,,,0.00,0,WeatherHawk,2013-09-04 01:14:00,
2013-09-03 20:19:00,62.8,59.1,29.98,West,277,0.0,-999.0,88,0.00,,,0.00,1,WeatherHawk,2013-09-04 01:19:00,
2013-09-03 20:24:00,61.3,57.4,29.98,West,277,0.0,-999.0,87,0.00,,,0.00,0,WeatherHawk,2013-09-04 01:24:00,
2013-09-03 20:29:00,61.4,58.4,29.98,West,277,0.0,-999.0,90,0.00,,,0.00,0,WeatherHawk,2013-09-04 01:29:00,
2013-09-03 20:34:00,60.5,58.2,29.98,West,277,0.0,-999.0,92,0.00,,,0.00,0,WeatherHawk,2013-09-04 01:34:00,
2013-09-03 20:39:00,59.9,57.5,29.97,West,277,0.0,-999.0,92,0.00,,,0.00,0,WeatherHawk,2013-09-04 01:39:00,
2013-09-03 20:44:00,58.6,56.9,29.97,West,277,0.0,-999.0,94,0.00,,,0.00,0,WeatherHawk,2013-09-04 01:44:00,
2013-09-03 20:49:00,59.0,58.1,29.98,West,277,0.0,-999.0,97,0.00,,,0.00,0,WeatherHawk,2013-09-04 01:49:00,
2013-09-03 20:54:00,55.7,54.8,29.98,West,277,0.0,-999.0,97,0.00,,,0.00,0,WeatherHawk,2013-09-04 01:54:00,
2013-09-03 20:59:00,55.3,55.3,29.97,West,277,0.0,-999.0,100,0.00,,,0.00,0,WeatherHawk,2013-09-04 01:59:00,
2013-09-03 21:04:00,57.6,57.6,29.97,West,277,0.0,-999.0,100,0.00,,,0.00,0,WeatherHawk,2013-09-04 02:04:00,
2013-09-03 21:09:00,56.3,56.3,29.97,West,277,0.0,-999.0,100,0.00,,,0.00,0,WeatherHawk,2013-09-04 02:09:00,
2013-09-03 21:14:00,60.0,60.0,29.97,West,277,0.0,-999.0,100,0.00,,,0.00,0,WeatherHawk,2013-09-04 02:14:00,
2013-09-03 21:19:00,60.7,60.7,29.96,West,277,0.0,-999.0,100,0.00,,,0.00,0,WeatherHawk,2013-09-04 02:19:00,
2013-09-03 21:24:00,57.8,57.8,29.96,West,277,0.0,-999.0,100,0.00,,,0.00,0,WeatherHawk,2013-09-04 02:24:00,
2013-09-03 21:29:00,58.7,58.7,29.97,West,277,0.0,-999.0,100,0.00,,,0.00,1,WeatherHawk,2013-09-04 02:29:00,
2013-09-03 21:34:00,59.0,59.0,29.98,West,277,0.0,-999.0,100,0.00,,,0.00,1,WeatherHawk,2013-09-04 02:34:00,
2013-09-03 21:39:00,58.9,58.9,29.98,West,277,0.0,-999.0,100,0.00,,,0.00,0,WeatherHawk,2013-09-04 02:39:00,
2013-09-03 21:44:00,58.2,58.2,29.98,West,277,0.0,-999.0,100,0.00,,,0.00,0,WeatherHawk,2013-09-04 02:44:00,
2013-09-03 21:49:00,59.7,59.7,29.98,West,277,0.0,-999.0,100,0.00,,,0.00,0,WeatherHawk,2013-09-04 02:49:00,
2013-09-03 21:54:00,59.6,59.6,29.97,West,277,0.0,-999.0,100,0.00,,,0.00,0,WeatherHawk,2013-09-04 02:54:00,
2013-09-03 21:59:00,57.9,57.9,29.98,West,277,0.0,-999.0,100,0.00,,,0.00,0,WeatherHawk,2013-09-04 02:59:00,
2013-09-03 22:04:00,58.9,58.9,29.97,West,277,0.0,-999.0,100,0.00,,,0.00,1,WeatherHawk,2013-09-04 03:04:00,
2013-09-03 22:09:00,57.2,57.2,29.97,West,277,0.0,-999.0,100,0.00,,,0.00,0,WeatherHawk,2013-09-04 03:09:00,
2013-09-03 22:14:00,55.5,55.5,29.98,West,277,0.0,-999.0,100,0.00,,,0.00,1,WeatherHawk,2013-09-04 03:14:00,
2013-09-03 22:19:00,57.9,57.9,29.97,West,277,0.0,-999.0,100,0.00,,,0.00,0,WeatherHawk,2013-09-04 03:19:00,
2013-09-03 22:24:00,55.1,55.1,29.98,West,277,0.0,-999.0,100,0.00,,,0.00,0,WeatherHawk,2013-09-04 03:24:00,
2013-09-03 22:29:00,54.7,54.7,29.98,West,277,0.0,-999.0,100,0.00,,,0.00,1,WeatherHawk,2013-09-04 03:29:00,
2013-09-03 22:34:00,55.2,55.2,29.97,West,277,0.0,-999.0,100,0.00,,,0.00,0,WeatherHawk,2013-09-04 03:34:00,
2013-09-03 22:39:00,55.6,55.6,29.97,West,277,0.0,-999.0,100,0.00,,,0.00,0,WeatherHawk,2013-09-04 03:39:00,
2013-09-03 22:44:00,55.1,55.1,29.97,West,277,0.0,-999.0,100,0.00,,,0.00,0,WeatherHawk,2013-09-04 03:44:00,
2013-09-03 22:49:00,56.6,56.6,29.97,West,277,0.0,-999.0,100,0.00,,,0.00,0,WeatherHawk,2013-09-04 03:49:00,
2013-09-03 22:54:00,54.9,54.9,29.98,West,277,0.0,-999.0,100,0.00,,,0.00,0,WeatherHawk,2013-09-04 03:54:00,
2013-09-03 23:00:00,56.1,56.1,29.97,West,277,0.0,-999.0,100,0.00,,,0.00,0,WeatherHawk,2013-09-04 04:00:00,
2013-09-03 23:05:00,53.3,53.3,29.98,West,277,0.0,-999.0,100,0.00,,,0.00,0,WeatherHawk,2013-09-04 04:05:00,
2013-09-03 23:09:00,54.9,54.9,29.98,West,277,0.0,-999.0,100,0.00,,,0.00,0,WeatherHawk,2013-09-04 04:09:00,
2013-09-03 23:15:00,56.1,56.1,29.99,West,277,0.0,-999.0,100,0.00,,,0.00,0,WeatherHawk,2013-09-04 04:15:00,
2013-09-03 23:20:00,56.6,56.6,29.97,West,277,0.0,-999.0,100,0.00,,,0.00,0,WeatherHawk,2013-09-04 04:20:00,
2013-09-03 23:30:00,57.8,57.8,29.97,West,277,0.0,-999.0,100,0.00,,,0.00,0,WeatherHawk,2013-09-04 04:30:00,
2013-09-03 23:34:00,58.2,58.2,29.98,West,277,0.0,-999.0,100,0.00,,,0.00,0,WeatherHawk,2013-09-04 04:34:00,
2013-09-03 23:39:00,57.3,57.3,29.98,West,277,0.0,-999.0,100,0.00,,,0.00,0,WeatherHawk,2013-09-04 04:39:00,
2013-09-03 23:45:00,55.6,55.6,29.97,West,277,0.0,-999.0,100,0.00,,,0.00,0,WeatherHawk,2013-09-04 04:45:00,
2013-09-03 23:55:00,53.5,53.5,29.98,West,277,0.0,-999.0,100,0.00,,,0.00,1,WeatherHawk,2013-09-04 04:55:00,